Big Falls, Wisconsin
Current Conditions -  °F | °C
As of 1:15 AM on Thursday 23 Oct 2014 (Local Time) from KCLI Reporting Station
Haze Haze  
Wind Chill: 32°   Ceiling: 300
Heat Index: 32°   Visibility: 2mi
Dew Point: 32°   Wind: 0mph
Humidity: 100%   Direction: NA
Pressure: 30.21"   Gusts: NA
Location:  44.62°N, 89.02°W
Report Text: KCLI 230615Z AUTO 00000KT 2SM BR OVC003 00/00 A3021 RMK AO2 VIS 1/2V5
Loading
Personal Weather Stations






























Interactive Weather Map
Tropical Storm Tracking
New forecast layout! Learn more

10-Day Weather Forecast

Advertisements
Track Severe Weather on mobile